createdAt,value
2017-12-22T00:00:08.638Z,82.60
2017-12-22T00:01:08.652Z,80.70
2017-12-22T00:02:08.600Z,81.30
2017-12-22T00:03:08.589Z,77.80
2017-12-22T00:04:08.561Z,78.30
2017-12-22T00:05:08.550Z,80.20
2017-12-22T00:06:08.523Z,71.90
2017-12-22T00:07:08.504Z,75.70
2017-12-22T00:08:08.499Z,73.40
2017-12-22T00:09:08.468Z,80.40
2017-12-22T00:10:08.444Z,76.30
2017-12-22T00:11:08.422Z,81.10
2017-12-22T00:12:08.405Z,73.70
2017-12-22T00:13:08.549Z,76.00
2017-12-22T00:14:08.366Z,76.80
2017-12-22T00:15:08.363Z,72.00
2017-12-22T00:16:08.354Z,65.70
2017-12-22T00:17:08.313Z,63.60
2017-12-22T00:18:08.289Z,67.60
2017-12-22T00:19:08.321Z,64.70
2017-12-22T00:20:08.249Z,66.10
2017-12-22T00:21:08.228Z,67.10
2017-12-22T00:22:08.214Z,68.20
2017-12-22T00:23:08.190Z,73.00
2017-12-22T00:24:08.184Z,66.70
2017-12-22T00:25:08.151Z,64.70
2017-12-22T00:26:08.132Z,66.70
2017-12-22T00:27:08.113Z,64.90
2017-12-22T00:28:08.091Z,66.20
2017-12-22T00:29:08.071Z,69.10
2017-12-22T00:30:08.061Z,71.50
2017-12-22T00:31:08.032Z,71.80
2017-12-22T00:32:08.016Z,68.90
2017-12-22T00:33:07.998Z,68.60
2017-12-22T00:34:07.976Z,68.20
2017-12-22T00:35:07.968Z,72.10
2017-12-22T00:36:07.946Z,73.50
2017-12-22T00:37:07.916Z,69.10
2017-12-22T00:38:07.930Z,76.70
2017-12-22T00:39:07.875Z,74.90
2017-12-22T00:40:07.857Z,69.50
2017-12-22T00:41:07.840Z,69.90
2017-12-22T00:42:07.817Z,73.60
2017-12-22T00:43:07.798Z,67.20
2017-12-22T00:44:07.778Z,68.10
2017-12-22T00:45:07.763Z,72.20
2017-12-22T00:46:07.737Z,69.60
2017-12-22T00:47:07.720Z,65.60
2017-12-22T00:48:07.699Z,69.50
2017-12-22T00:49:07.679Z,71.90
2017-12-22T00:50:07.660Z,67.50
2017-12-22T00:51:07.643Z,71.60
2017-12-22T00:52:07.625Z,72.70
2017-12-22T00:53:07.613Z,73.50
2017-12-22T00:54:07.584Z,66.60
2017-12-22T00:55:07.566Z,60.60
2017-12-22T00:56:07.545Z,63.00
2017-12-22T00:57:07.524Z,65.20
2017-12-22T00:58:07.504Z,56.70
2017-12-22T00:59:07.494Z,56.80
2017-12-22T01:00:07.466Z,62.70
2017-12-22T01:01:07.460Z,62.30
2017-12-22T01:02:07.425Z,60.80
2017-12-22T01:03:07.406Z,67.40
2017-12-22T01:04:07.386Z,66.30
2017-12-22T01:05:07.440Z,63.90
2017-12-22T01:06:07.358Z,66.60
2017-12-22T01:07:07.328Z,64.50
2017-12-22T01:08:07.327Z,62.90
2017-12-22T01:09:07.292Z,61.10
2017-12-22T01:10:07.278Z,71.20
2017-12-22T01:11:07.259Z,68.60
2017-12-22T01:12:07.232Z,65.90
2017-12-22T01:13:07.211Z,67.70
2017-12-22T01:14:07.192Z,64.10
2017-12-22T01:15:07.170Z,61.00
2017-12-22T01:16:07.163Z,67.90
2017-12-22T01:17:07.153Z,60.50
2017-12-22T01:18:07.111Z,60.70
2017-12-22T01:19:07.093Z,59.50
2017-12-22T01:20:07.072Z,65.30
2017-12-22T01:21:07.052Z,59.50
2017-12-22T01:22:07.032Z,57.70
2017-12-22T01:23:07.015Z,59.20
2017-12-22T01:24:06.991Z,56.40
2017-12-22T01:25:06.975Z,59.30
2017-12-22T01:26:06.954Z,62.30
2017-12-22T01:27:07.050Z,56.20
2017-12-22T01:28:06.919Z,63.00
2017-12-22T01:29:06.898Z,61.70
2017-12-22T01:30:06.879Z,54.50
2017-12-22T01:31:06.858Z,56.80
2017-12-22T01:32:06.837Z,53.90
2017-12-22T01:33:06.821Z,62.60
2017-12-22T01:34:06.818Z,56.60
2017-12-22T01:35:06.791Z,61.50
2017-12-22T01:36:06.760Z,58.00
2017-12-22T01:37:06.739Z,64.60
2017-12-22T01:38:06.736Z,53.00
2017-12-22T01:39:06.702Z,58.00
2017-12-22T01:40:06.681Z,57.40
2017-12-22T01:41:06.663Z,57.40
2017-12-22T01:42:06.646Z,60.70
2017-12-22T01:43:06.626Z,61.60
2017-12-22T01:44:06.607Z,62.80
2017-12-22T01:45:06.605Z,58.90
2017-12-22T01:46:06.565Z,61.20
2017-12-22T01:47:06.546Z,56.50
2017-12-22T01:48:06.528Z,58.00
2017-12-22T01:49:06.508Z,58.10
2017-12-22T01:50:06.495Z,56.10
2017-12-22T01:51:06.469Z,60.70
2017-12-22T01:52:06.456Z,60.50
2017-12-22T01:53:06.430Z,59.60
2017-12-22T01:54:06.409Z,58.10
2017-12-22T01:55:06.402Z,59.80
2017-12-22T01:56:06.375Z,57.40
2017-12-22T01:57:06.432Z,63.00
2017-12-22T01:58:06.334Z,65.80
2017-12-22T01:59:06.313Z,68.20
2017-12-22T02:00:06.301Z,67.00
2017-12-22T02:01:06.284Z,68.50
2017-12-22T02:02:06.265Z,62.50
2017-12-22T02:03:06.241Z,71.70
2017-12-22T02:04:06.217Z,68.80
2017-12-22T02:05:06.198Z,68.80
2017-12-22T02:06:06.179Z,68.20
2017-12-22T02:07:06.160Z,69.00
2017-12-22T02:08:06.144Z,68.60
2017-12-22T02:09:06.128Z,61.50
2017-12-22T02:10:06.103Z,69.90
2017-12-22T02:11:06.094Z,71.10
2017-12-22T02:12:06.063Z,79.70
2017-12-22T02:13:06.041Z,75.80
2017-12-22T02:14:06.025Z,69.00
2017-12-22T02:15:06.007Z,69.90
2017-12-22T02:16:06.148Z,72.10
2017-12-22T02:17:05.964Z,76.90
2017-12-22T02:18:05.945Z,74.40
2017-12-22T02:19:05.956Z,82.80
2017-12-22T02:20:05.924Z,83.80
2017-12-22T02:21:05.892Z,88.60
2017-12-22T02:22:05.871Z,82.70
2017-12-22T02:23:05.851Z,81.50
2017-12-22T02:24:05.831Z,86.50
2017-12-22T02:25:05.813Z,83.00
2017-12-22T02:26:05.793Z,90.20
2017-12-22T02:27:05.773Z,92.70
2017-12-22T02:28:05.754Z,90.80
2017-12-22T02:29:05.735Z,97.80
2017-12-22T02:30:05.723Z,95.10
2017-12-22T02:31:05.697Z,94.90
2017-12-22T02:32:05.680Z,89.90
2017-12-22T02:33:05.669Z,97.40
2017-12-22T02:34:05.640Z,95.50
2017-12-22T02:35:05.619Z,98.90
2017-12-22T02:36:05.598Z,90.60
2017-12-22T02:37:05.579Z,96.40
2017-12-22T02:38:05.561Z,86.40
2017-12-22T02:39:05.540Z,96.90
2017-12-22T02:40:05.521Z,91.20
2017-12-22T02:41:05.502Z,91.20
2017-12-22T02:42:05.487Z,93.90
2017-12-22T02:43:05.462Z,96.30
2017-12-22T02:44:05.505Z,88.80
2017-12-22T02:45:05.427Z,96.80
2017-12-22T02:46:05.421Z,94.60
2017-12-22T02:47:05.388Z,88.80
2017-12-22T02:48:05.377Z,96.40
2017-12-22T02:49:05.356Z,88.20
2017-12-22T02:50:05.326Z,94.00
2017-12-22T02:51:05.328Z,102.80
2017-12-22T02:52:05.289Z,91.60
2017-12-22T02:53:05.271Z,92.80
2017-12-22T02:54:05.251Z,95.30
2017-12-22T02:55:05.238Z,97.00
2017-12-22T02:56:05.222Z,96.40
2017-12-22T02:57:05.197Z,87.40
2017-12-22T02:58:05.228Z,93.50
2017-12-22T02:59:05.171Z,91.80
2017-12-22T03:00:05.134Z,102.60
2017-12-22T03:01:05.120Z,96.30
2017-12-22T03:02:05.099Z,93.30
2017-12-22T03:03:05.077Z,100.60
2017-12-22T03:04:05.058Z,100.20
2017-12-22T03:05:05.048Z,106.30
2017-12-22T03:06:05.021Z,105.40
2017-12-22T03:07:05.011Z,95.50
2017-12-22T03:08:05.109Z,101.70
2017-12-22T03:09:04.967Z,103.80
2017-12-22T03:10:04.944Z,103.70
2017-12-22T03:11:04.927Z,100.40
2017-12-22T03:12:04.904Z,111.90
2017-12-22T03:13:04.905Z,109.90
2017-12-22T03:14:04.866Z,114.90
2017-12-22T03:15:04.849Z,114.10
2017-12-22T03:16:04.826Z,113.20
2017-12-22T03:17:04.815Z,114.00
2017-12-22T03:18:04.790Z,119.20
2017-12-22T03:19:04.772Z,110.40
2017-12-22T03:20:04.750Z,121.20
2017-12-22T03:21:04.733Z,120.20
2017-12-22T03:22:04.714Z,117.90
2017-12-22T03:23:04.694Z,115.20
2017-12-22T03:24:04.673Z,113.30
2017-12-22T03:25:04.651Z,121.10
2017-12-22T03:26:04.633Z,119.60
2017-12-22T03:27:04.615Z,115.70
2017-12-22T03:28:04.594Z,123.40
2017-12-22T03:29:04.574Z,131.40
2017-12-22T03:30:04.569Z,131.60
2017-12-22T03:31:04.537Z,129.10
2017-12-22T03:32:04.522Z,124.70
2017-12-22T03:33:04.506Z,122.60
2017-12-22T03:34:04.485Z,127.70
2017-12-22T03:35:04.470Z,131.80
2017-12-22T03:36:04.442Z,134.30
2017-12-22T03:37:04.419Z,131.50
2017-12-22T03:38:04.431Z,132.70
2017-12-22T03:39:04.382Z,123.60
2017-12-22T03:40:04.363Z,130.10
2017-12-22T03:41:04.342Z,127.30
2017-12-22T03:42:04.324Z,130.80
2017-12-22T03:43:04.304Z,126.00
2017-12-22T03:44:04.284Z,136.60
2017-12-22T03:45:04.275Z,126.90
2017-12-22T03:46:04.248Z,137.10
2017-12-22T03:47:04.229Z,131.80
2017-12-22T03:48:04.208Z,130.70
2017-12-22T03:49:04.189Z,140.70
2017-12-22T03:50:04.169Z,139.40
2017-12-22T03:51:04.151Z,138.70
2017-12-22T03:52:04.129Z,134.70
2017-12-22T03:53:04.111Z,123.70
2017-12-22T03:54:04.240Z,124.80
2017-12-22T03:55:04.072Z,134.60
2017-12-22T03:56:04.053Z,128.70
2017-12-22T03:57:04.038Z,136.70
2017-12-22T03:58:04.017Z,139.30
2017-12-22T03:59:04.006Z,122.70
2017-12-22T04:00:03.985Z,123.20
2017-12-22T04:01:03.958Z,119.00
2017-12-22T04:02:03.991Z,113.30
2017-12-22T04:03:03.919Z,117.30
2017-12-22T04:04:03.899Z,104.00
2017-12-22T04:05:03.879Z,100.30
2017-12-22T04:06:03.860Z,105.80
2017-12-22T04:07:03.842Z,100.60
2017-12-22T04:08:03.822Z,88.10
2017-12-22T04:09:03.802Z,88.60
2017-12-22T04:10:03.787Z,102.00
2017-12-22T04:11:03.767Z,103.70
2017-12-22T04:12:03.750Z,107.70
2017-12-22T04:13:03.725Z,102.00
2017-12-22T04:14:03.706Z,123.40
2017-12-22T04:15:03.688Z,121.80
2017-12-22T04:16:03.669Z,118.40
2017-12-22T04:17:03.649Z,124.70
2017-12-22T04:18:03.628Z,115.70
2017-12-22T04:19:03.617Z,118.60
2017-12-22T04:20:03.595Z,113.50
2017-12-22T04:21:03.582Z,111.30
2017-12-22T04:22:03.554Z,122.30
2017-12-22T04:23:03.536Z,125.80
2017-12-22T04:24:03.589Z,122.80
2017-12-22T04:25:03.502Z,123.60
2017-12-22T04:26:03.476Z,124.40
2017-12-22T04:27:03.509Z,120.10
2017-12-22T04:28:03.436Z,120.30
2017-12-22T04:29:03.417Z,124.50
2017-12-22T04:30:03.403Z,128.80
2017-12-22T04:31:03.382Z,128.70
2017-12-22T04:32:03.363Z,132.40
2017-12-22T04:33:03.343Z,119.40
2017-12-22T04:34:03.340Z,134.20
2017-12-22T04:35:03.301Z,116.50
2017-12-22T04:36:03.282Z,126.30
2017-12-22T04:37:03.264Z,127.60
2017-12-22T04:38:03.247Z,122.30
2017-12-22T04:39:03.225Z,122.10
2017-12-22T04:40:03.206Z,117.10
2017-12-22T04:41:03.191Z,122.80
2017-12-22T04:42:03.171Z,112.70
2017-12-22T04:43:03.162Z,127.50
2017-12-22T04:44:03.130Z,119.20
2017-12-22T04:45:03.109Z,114.20
2017-12-22T04:46:03.097Z,123.60
2017-12-22T04:47:03.073Z,123.50
2017-12-22T04:48:03.056Z,124.10
2017-12-22T04:49:03.041Z,125.70
2017-12-22T04:50:03.015Z,109.40
2017-12-22T04:51:02.999Z,113.40
2017-12-22T04:52:02.980Z,111.90
2017-12-22T04:53:02.959Z,111.10
2017-12-22T04:54:02.947Z,95.20
2017-12-22T04:55:02.919Z,85.00
2017-12-22T04:56:02.898Z,85.40
2017-12-22T04:57:02.881Z,87.30
2017-12-22T04:58:02.861Z,79.30
2017-12-22T04:59:02.844Z,81.20
2017-12-22T05:00:02.826Z,85.90
2017-12-22T05:01:02.808Z,80.40
2017-12-22T05:02:02.787Z,85.80
2017-12-22T05:03:02.769Z,88.20
2017-12-22T05:04:02.749Z,101.50
2017-12-22T05:05:02.729Z,103.30
2017-12-22T05:06:02.711Z,102.80
2017-12-22T05:07:02.693Z,108.70
2017-12-22T05:08:02.673Z,113.50
2017-12-22T05:09:02.652Z,123.30
2017-12-22T05:10:02.637Z,119.60
2017-12-22T05:11:02.617Z,120.00
2017-12-22T05:12:02.597Z,120.30
2017-12-22T05:13:02.577Z,117.50
2017-12-22T05:14:02.557Z,124.80
2017-12-22T05:15:02.539Z,117.70
2017-12-22T05:16:02.605Z,115.80
2017-12-22T05:17:02.499Z,122.80
2017-12-22T05:18:02.480Z,116.50
2017-12-22T05:19:02.524Z,120.70
2017-12-22T05:20:02.445Z,109.90
2017-12-22T05:21:02.424Z,129.10
2017-12-22T05:22:02.407Z,126.80
2017-12-22T05:23:02.396Z,123.20
2017-12-22T05:24:02.367Z,132.90
2017-12-22T05:25:02.347Z,130.00
2017-12-22T05:26:02.328Z,130.90
2017-12-22T05:27:02.316Z,129.70
2017-12-22T05:28:02.290Z,138.90
2017-12-22T05:29:02.269Z,140.10
2017-12-22T05:30:02.254Z,138.20
2017-12-22T05:31:02.237Z,140.80
2017-12-22T05:32:02.357Z,142.40
2017-12-22T05:33:02.194Z,134.30
2017-12-22T05:34:02.175Z,132.30
2017-12-22T05:35:02.193Z,132.90
2017-12-22T05:36:02.136Z,149.70
2017-12-22T05:37:02.116Z,146.30
2017-12-22T05:38:02.154Z,138.60
2017-12-22T05:39:02.083Z,144.40
2017-12-22T05:40:02.067Z,144.00
2017-12-22T05:41:02.043Z,129.10
2017-12-22T05:42:02.022Z,138.60
2017-12-22T05:43:02.005Z,153.30
2017-12-22T05:44:01.991Z,137.00
2017-12-22T05:45:01.965Z,148.20
2017-12-22T05:46:01.948Z,138.90
2017-12-22T05:47:01.936Z,137.00
2017-12-22T05:48:01.907Z,137.70
2017-12-22T05:49:01.893Z,126.60
2017-12-22T05:50:01.872Z,132.90
2017-12-22T05:51:01.852Z,136.40
2017-12-22T05:52:01.831Z,147.70
2017-12-22T05:53:01.813Z,146.10
2017-12-22T05:54:01.819Z,149.90
2017-12-22T05:55:01.776Z,131.50
2017-12-22T05:56:01.760Z,134.80
2017-12-22T05:57:01.741Z,130.60
2017-12-22T05:58:01.720Z,140.20
2017-12-22T05:59:01.701Z,135.10
2017-12-22T06:00:01.681Z,145.60
2017-12-22T06:01:01.659Z,141.30
2017-12-22T06:02:01.779Z,144.60
2017-12-22T06:03:01.627Z,147.90
2017-12-22T06:04:01.604Z,151.50
2017-12-22T06:05:01.608Z,150.50
2017-12-22T06:06:01.570Z,155.70
2017-12-22T06:07:01.549Z,158.50
2017-12-22T06:08:01.530Z,158.80
2017-12-22T06:09:01.510Z,160.20
2017-12-22T06:10:01.491Z,147.20
2017-12-22T06:11:01.475Z,151.50
2017-12-22T06:12:01.454Z,151.60
2017-12-22T06:13:01.436Z,148.70
2017-12-22T06:14:01.421Z,141.10
2017-12-22T06:15:01.398Z,140.10
2017-12-22T06:16:01.379Z,144.50
2017-12-22T06:17:01.370Z,147.70
2017-12-22T06:18:01.346Z,153.40
2017-12-22T06:19:01.330Z,145.20
2017-12-22T06:20:01.301Z,151.90
2017-12-22T06:21:01.280Z,140.50
2017-12-22T06:22:01.263Z,135.50
2017-12-22T06:23:01.249Z,134.00
2017-12-22T06:24:01.305Z,129.80
2017-12-22T06:25:01.206Z,133.00
2017-12-22T06:26:01.202Z,125.20
2017-12-22T06:27:01.173Z,121.10
2017-12-22T06:28:01.150Z,109.10
2017-12-22T06:29:01.129Z,112.60
2017-12-22T06:30:01.109Z,119.10
2017-12-22T06:31:01.091Z,118.70
2017-12-22T06:32:01.071Z,109.80
2017-12-22T06:33:01.056Z,108.50
2017-12-22T06:34:01.035Z,106.00
2017-12-22T06:35:01.017Z,111.80
2017-12-22T06:36:00.996Z,111.20
2017-12-22T06:37:00.974Z,107.60
2017-12-22T06:38:00.962Z,113.80
2017-12-22T06:39:00.937Z,104.60
2017-12-22T06:40:00.919Z,110.70
2017-12-22T06:41:00.900Z,123.00
2017-12-22T06:42:00.881Z,118.80
2017-12-22T06:43:00.870Z,120.20
2017-12-22T06:44:00.839Z,122.10
2017-12-22T06:45:00.827Z,127.90
2017-12-22T06:46:00.804Z,132.20
2017-12-22T06:47:00.809Z,133.30
2017-12-22T06:48:00.764Z,128.30
2017-12-22T06:49:00.743Z,121.00
2017-12-22T06:50:00.724Z,141.80
2017-12-22T06:51:00.727Z,149.60
2017-12-22T06:52:00.686Z,128.40
2017-12-22T06:53:00.728Z,123.70
2017-12-22T06:54:00.666Z,129.60
2017-12-22T06:55:00.633Z,140.10
2017-12-22T06:56:00.615Z,144.60
2017-12-22T06:57:00.610Z,158.80
2017-12-22T06:58:00.572Z,144.80
2017-12-22T06:59:00.553Z,154.30
2017-12-22T07:00:00.564Z,156.00
2017-12-22T07:01:00.513Z,147.10
2017-12-22T07:02:00.495Z,130.30
2017-12-22T07:03:00.475Z,145.40
2017-12-22T07:04:00.454Z,139.70
2017-12-22T07:05:00.434Z,144.30
2017-12-22T07:06:00.417Z,140.80
2017-12-22T07:07:00.397Z,130.00
2017-12-22T07:08:00.379Z,138.20
2017-12-22T07:09:00.359Z,129.40
2017-12-22T07:10:00.348Z,127.40
2017-12-22T07:11:00.322Z,135.20
2017-12-22T07:12:00.302Z,148.80
2017-12-22T07:13:00.293Z,151.60
2017-12-22T07:14:00.261Z,177.60
2017-12-22T07:15:00.243Z,188.30
2017-12-22T07:16:00.232Z,182.80
2017-12-22T07:17:00.203Z,201.70
2017-12-22T07:18:00.184Z,207.30
2017-12-22T07:19:00.165Z,187.10
2017-12-22T07:20:00.145Z,191.40
2017-12-22T07:21:00.126Z,179.60
2017-12-22T07:22:00.109Z,209.20
2017-12-22T07:23:00.091Z,226.60
2017-12-22T07:24:00.069Z,242.40
2017-12-22T07:25:00.049Z,213.80
2017-12-22T07:26:00.035Z,219.10
2017-12-22T07:27:00.008Z,237.60
2017-12-22T07:27:59.988Z,245.10
2017-12-22T07:28:59.968Z,231.80
2017-12-22T07:29:59.965Z,228.10
2017-12-22T07:30:59.933Z,259.10
2017-12-22T07:31:59.910Z,275.80
2017-12-22T07:32:59.892Z,294.70
2017-12-22T07:33:59.872Z,300.10
2017-12-22T07:34:59.857Z,263.00
2017-12-22T07:35:59.832Z,238.60
2017-12-22T07:36:59.815Z,221.70
2017-12-22T07:37:59.797Z,253.00
2017-12-22T07:38:59.776Z,240.60
2017-12-22T07:39:59.757Z,233.30
2017-12-22T07:40:59.738Z,261.20
2017-12-22T07:41:59.717Z,249.30
2017-12-22T07:42:59.710Z,260.60
2017-12-22T07:43:59.684Z,231.10
2017-12-22T07:44:59.663Z,218.40
2017-12-22T07:45:59.652Z,206.00
2017-12-22T07:46:59.619Z,199.00
2017-12-22T07:47:59.597Z,214.10
2017-12-22T07:48:59.580Z,246.10
2017-12-22T07:49:59.605Z,281.30
2017-12-22T07:50:59.540Z,276.20
2017-12-22T07:51:59.529Z,303.70
2017-12-22T07:52:59.500Z,343.90
2017-12-22T07:53:59.486Z,371.70
2017-12-22T07:54:59.465Z,367.90
2017-12-22T07:55:59.444Z,315.90
2017-12-22T07:56:59.424Z,267.90
2017-12-22T07:57:59.418Z,240.10
2017-12-22T07:58:59.397Z,266.70
2017-12-22T07:59:59.364Z,220.70
2017-12-22T08:00:59.346Z,261.30
2017-12-22T08:01:59.327Z,274.30
2017-12-22T08:02:59.312Z,302.10
2017-12-22T08:03:59.285Z,236.50
2017-12-22T08:04:59.379Z,219.20
2017-12-22T08:05:59.250Z,214.30
2017-12-22T08:06:59.232Z,200.60
2017-12-22T08:07:59.219Z,248.90
2017-12-22T08:08:59.190Z,198.10
2017-12-22T08:09:59.177Z,236.70
2017-12-22T08:10:59.156Z,281.70
2017-12-22T08:11:59.136Z,389.30
2017-12-22T08:12:59.118Z,433.40
2017-12-22T08:13:59.094Z,395.80
2017-12-22T08:14:59.086Z,355.80
2017-12-22T08:15:59.054Z,386.70
2017-12-22T08:16:59.046Z,415.60
2017-12-22T08:17:59.022Z,522.60
2017-12-22T08:18:59.002Z,412.70
2017-12-22T08:19:58.985Z,447.30
2017-12-22T08:20:58.961Z,383.90
2017-12-22T08:21:58.949Z,461.30
2017-12-22T08:22:58.935Z,495.50
2017-12-22T08:23:58.901Z,528.50
2017-12-22T08:24:58.896Z,484.00
2017-12-22T08:25:58.867Z,427.00
2017-12-22T08:26:58.846Z,476.30
2017-12-22T08:27:58.826Z,573.80
2017-12-22T08:28:58.819Z,277.40
2017-12-22T08:29:58.790Z,301.40
2017-12-22T08:30:58.776Z,401.00
2017-12-22T08:31:58.768Z,424.90
2017-12-22T08:32:58.732Z,490.00
2017-12-22T08:33:58.712Z,431.90
2017-12-22T08:34:58.789Z,429.80
2017-12-22T08:35:58.681Z,397.50
2017-12-22T08:36:58.668Z,367.80
2017-12-22T08:37:58.720Z,431.60
2017-12-22T08:38:58.620Z,399.50
2017-12-22T08:39:58.600Z,345.90
2017-12-22T08:40:58.586Z,412.50
2017-12-22T08:41:58.565Z,446.30
2017-12-22T08:42:58.543Z,485.40
2017-12-22T08:43:58.520Z,259.50
2017-12-22T08:44:58.511Z,271.90
2017-12-22T08:45:58.487Z,214.70
2017-12-22T08:46:58.472Z,203.40
2017-12-22T08:47:58.451Z,275.40
2017-12-22T08:48:58.427Z,354.30
2017-12-22T08:49:58.426Z,450.50
2017-12-22T08:50:58.390Z,215.40
2017-12-22T08:51:58.369Z,320.10
2017-12-22T08:52:58.351Z,301.80
2017-12-22T08:53:58.432Z,184.50
2017-12-22T08:54:58.316Z,170.20
2017-12-22T08:55:58.297Z,168.10
2017-12-22T08:56:58.278Z,189.20
2017-12-22T08:57:58.260Z,152.10
2017-12-22T08:58:58.237Z,153.80
2017-12-22T08:59:58.228Z,165.10
2017-12-22T09:00:58.206Z,178.60
2017-12-22T09:01:58.188Z,151.50
2017-12-22T09:02:58.171Z,155.50
2017-12-22T09:03:58.164Z,161.10
2017-12-22T09:04:58.128Z,181.60
2017-12-22T09:05:58.107Z,191.60
2017-12-22T09:06:58.092Z,237.20
2017-12-22T09:07:58.079Z,169.40
2017-12-22T09:08:58.062Z,178.80
2017-12-22T09:09:58.036Z,197.60
2017-12-22T09:10:58.024Z,153.90
2017-12-22T09:11:57.997Z,138.50
2017-12-22T09:12:57.979Z,137.70
2017-12-22T09:13:57.966Z,134.70
2017-12-22T09:14:57.945Z,128.80
2017-12-22T09:15:57.923Z,132.00
2017-12-22T09:16:57.909Z,239.80
2017-12-22T09:17:57.884Z,261.00
2017-12-22T09:18:57.865Z,338.90
2017-12-22T09:19:57.851Z,508.60
2017-12-22T09:20:57.838Z,354.50
2017-12-22T09:21:57.814Z,246.00
2017-12-22T09:22:57.797Z,276.10
2017-12-22T09:23:57.798Z,233.60
2017-12-22T09:24:57.754Z,226.50
2017-12-22T09:25:57.738Z,273.40
2017-12-22T09:26:57.724Z,381.80
2017-12-22T09:27:57.703Z,439.10
2017-12-22T09:28:57.685Z,364.20
2017-12-22T09:29:57.714Z,500.70
2017-12-22T09:30:57.644Z,242.80
2017-12-22T09:31:57.627Z,258.30
2017-12-22T09:32:57.614Z,286.30
2017-12-22T09:33:57.599Z,287.90
2017-12-22T09:34:57.588Z,297.00
2017-12-22T09:35:57.557Z,368.40
2017-12-22T09:36:57.536Z,296.30
2017-12-22T09:37:57.523Z,285.20
2017-12-22T09:38:57.505Z,320.80
2017-12-22T09:39:57.488Z,264.00
2017-12-22T09:40:57.489Z,280.10
2017-12-22T09:41:57.442Z,211.20
2017-12-22T09:42:57.452Z,185.70
2017-12-22T09:43:57.406Z,167.50
2017-12-22T09:44:57.388Z,185.30
2017-12-22T09:45:57.422Z,156.00
2017-12-22T09:46:57.352Z,154.00
2017-12-22T09:47:57.332Z,157.00
2017-12-22T09:48:57.349Z,173.30
2017-12-22T09:49:57.305Z,179.70
2017-12-22T09:50:57.288Z,140.30
2017-12-22T09:51:57.257Z,142.70
2017-12-22T09:52:57.248Z,126.40
2017-12-22T09:53:57.224Z,143.20
2017-12-22T09:54:57.241Z,148.00
2017-12-22T09:55:57.193Z,142.70
2017-12-22T09:56:57.176Z,133.60
2017-12-22T09:57:57.152Z,137.80
2017-12-22T09:58:57.134Z,131.80
2017-12-22T09:59:57.113Z,138.80
2017-12-22T10:00:57.098Z,139.70
2017-12-22T10:01:57.159Z,124.10
2017-12-22T10:02:57.062Z,147.10
2017-12-22T10:03:57.042Z,141.50
2017-12-22T10:04:57.027Z,130.00
2017-12-22T10:05:57.018Z,130.40
2017-12-22T10:06:56.991Z,122.80
2017-12-22T10:07:56.968Z,122.30
2017-12-22T10:08:56.957Z,120.30
2017-12-22T10:09:56.945Z,116.20
2017-12-22T10:10:56.918Z,125.10
2017-12-22T10:11:56.898Z,122.10
2017-12-22T10:12:56.912Z,118.90
2017-12-22T10:13:56.870Z,114.20
2017-12-22T10:14:56.852Z,108.10
2017-12-22T10:15:56.825Z,98.30
2017-12-22T10:16:56.810Z,107.90
2017-12-22T10:17:56.790Z,106.10
2017-12-22T10:18:56.774Z,99.60
2017-12-22T10:19:56.755Z,105.60
2017-12-22T10:20:56.747Z,99.90
2017-12-22T10:21:56.721Z,96.90
2017-12-22T10:22:56.708Z,95.80
2017-12-22T10:23:56.699Z,97.40
2017-12-22T10:24:56.667Z,93.80
2017-12-22T10:25:56.653Z,86.30
2017-12-22T10:26:56.633Z,90.00
2017-12-22T10:27:56.625Z,89.60
2017-12-22T10:28:56.626Z,95.80
2017-12-22T10:29:56.576Z,87.50
2017-12-22T10:30:56.565Z,87.40
2017-12-22T10:31:56.550Z,88.80
2017-12-22T10:32:56.526Z,77.00
2017-12-22T10:33:56.505Z,76.20
2017-12-22T10:34:56.532Z,78.40
2017-12-22T10:35:56.467Z,77.90
2017-12-22T10:36:56.461Z,79.10
2017-12-22T10:37:56.442Z,78.70
2017-12-22T10:38:56.418Z,77.70
2017-12-22T10:39:56.403Z,79.00
2017-12-22T10:40:56.408Z,78.70
2017-12-22T10:41:56.362Z,78.30
2017-12-22T10:42:56.352Z,77.40
2017-12-22T10:43:56.333Z,87.60
2017-12-22T10:44:56.307Z,80.40
2017-12-22T10:45:56.291Z,82.80
2017-12-22T10:46:56.274Z,72.70
2017-12-22T10:47:56.264Z,80.20
2017-12-22T10:48:56.242Z,81.80
2017-12-22T10:49:56.227Z,82.90
2017-12-22T10:50:56.225Z,85.60
2017-12-22T10:51:56.188Z,89.10
2017-12-22T10:52:56.170Z,85.00
2017-12-22T10:53:56.152Z,88.00
2017-12-22T10:54:56.133Z,92.10
2017-12-22T10:55:56.146Z,95.50
2017-12-22T10:56:56.097Z,89.70
2017-12-22T10:57:56.090Z,94.20
2017-12-22T10:58:56.153Z,88.90
2017-12-22T10:59:56.041Z,114.60
2017-12-22T11:00:56.026Z,113.20
2017-12-22T11:01:56.014Z,93.10
2017-12-22T11:02:55.988Z,95.50
2017-12-22T11:03:55.983Z,87.50
2017-12-22T11:04:55.955Z,92.50
2017-12-22T11:05:55.939Z,87.70
2017-12-22T11:06:55.920Z,102.00
2017-12-22T11:07:55.900Z,88.90
2017-12-22T11:08:55.896Z,97.40
2017-12-22T11:09:55.868Z,95.40
2017-12-22T11:10:55.847Z,103.10
2017-12-22T11:11:55.827Z,99.30
2017-12-22T11:12:55.814Z,88.40
2017-12-22T11:13:55.798Z,88.40
2017-12-22T11:14:55.777Z,89.90
2017-12-22T11:15:55.761Z,90.20
2017-12-22T11:16:55.740Z,79.10
2017-12-22T11:17:55.721Z,83.40
2017-12-22T11:18:55.714Z,81.80
2017-12-22T11:19:55.693Z,82.80
2017-12-22T11:20:55.764Z,86.30
2017-12-22T11:21:55.657Z,84.60
2017-12-22T11:22:55.637Z,86.40
2017-12-22T11:23:55.621Z,79.20
2017-12-22T11:24:55.595Z,87.30
2017-12-22T11:25:55.581Z,85.50
2017-12-22T11:26:55.560Z,85.50
2017-12-22T11:27:55.546Z,82.40
2017-12-22T11:28:55.534Z,81.10
2017-12-22T11:29:55.507Z,79.90
2017-12-22T11:30:55.490Z,78.40
2017-12-22T11:31:55.474Z,74.20
2017-12-22T11:32:55.472Z,81.00
2017-12-22T11:33:55.437Z,81.30
2017-12-22T11:34:55.418Z,80.40
2017-12-22T11:35:55.427Z,81.70
2017-12-22T11:36:55.392Z,84.60
2017-12-22T11:37:55.365Z,79.80
2017-12-22T11:38:55.362Z,85.70
2017-12-22T11:39:55.335Z,85.00
2017-12-22T11:40:55.314Z,83.10
2017-12-22T11:41:55.301Z,86.90
2017-12-22T11:42:55.276Z,82.10
2017-12-22T11:43:55.259Z,86.10
2017-12-22T11:44:55.240Z,80.20
2017-12-22T11:45:55.224Z,82.50
2017-12-22T11:46:55.203Z,84.70
2017-12-22T11:47:55.202Z,89.50
2017-12-22T11:48:55.180Z,84.20
2017-12-22T11:49:55.152Z,83.20
2017-12-22T11:50:55.192Z,84.00
2017-12-22T11:51:55.121Z,86.80
2017-12-22T11:52:55.096Z,84.10
2017-12-22T11:53:55.098Z,81.90
2017-12-22T11:54:55.074Z,79.10
2017-12-22T11:55:55.047Z,78.90
2017-12-22T11:56:55.030Z,83.40
2017-12-22T11:57:55.018Z,81.00
2017-12-22T11:58:54.998Z,77.30
2017-12-22T11:59:54.979Z,78.00
2017-12-22T12:00:54.970Z,80.30
2017-12-22T12:01:54.937Z,77.30
2017-12-22T12:02:54.922Z,76.40
2017-12-22T12:03:54.911Z,70.50
2017-12-22T12:04:54.884Z,79.80
2017-12-22T12:05:54.864Z,77.50
2017-12-22T12:06:54.964Z,75.70
2017-12-22T12:07:54.831Z,81.40
2017-12-22T12:08:54.810Z,77.20
2017-12-22T12:09:54.831Z,75.50
2017-12-22T12:10:54.782Z,77.70
2017-12-22T12:11:54.772Z,78.80
2017-12-22T12:12:54.740Z,71.80
2017-12-22T12:13:54.732Z,80.60
2017-12-22T12:14:54.705Z,70.70
2017-12-22T12:15:54.689Z,73.60
2017-12-22T12:16:54.677Z,77.00
2017-12-22T12:17:54.652Z,73.30
2017-12-22T12:18:54.681Z,70.40
2017-12-22T12:19:54.640Z,74.50
2017-12-22T12:20:54.599Z,70.10
2017-12-22T12:21:54.583Z,81.90
2017-12-22T12:22:54.562Z,70.90
2017-12-22T12:23:54.551Z,80.50
2017-12-22T12:24:54.527Z,80.20
2017-12-22T12:25:54.512Z,74.70
2017-12-22T12:26:54.502Z,72.70
2017-12-22T12:27:54.499Z,71.40
2017-12-22T12:28:54.458Z,65.70
2017-12-22T12:29:54.448Z,67.10
2017-12-22T12:30:54.423Z,71.80
2017-12-22T12:31:54.417Z,78.50
2017-12-22T12:32:54.388Z,79.40
2017-12-22T12:33:54.369Z,72.60
2017-12-22T12:34:54.401Z,77.30
2017-12-22T12:35:54.330Z,80.20
2017-12-22T12:36:54.397Z,77.10
2017-12-22T12:37:54.317Z,75.90